Latest Weather Observations for Nowra

IDN60801

Issued at 1:35 pm EDT Tuesday 23 December 2014 (issued every 30 minutes, with the page automatically refreshed every 10 minutes)

About weather observations | Map of weather stations | Latest weather observations for NSW | Other Formats
Station Details ID: 068072 Name: NOWRA RAN AIR STATION AWS Lat: -34.95 Lon: 150.54 Height: 109.0 m
Data from the previous 72 hours. | See also: Recent months at Nowra
Date/Time
EDT
Temp
°C
App
Temp
°C
Dew
Point
Rel
Hum
%
Delta-T
°C
Wind Press
QNH
hPa
Press
MSL
hPa
Rain
since 9 am
mm
Dir
 
Spd
km/h
Gust
km/h
Spd
kts
Gust
kts
23/01:00pm 25.6 23.7 18.5 65 4.5 E 26 30 14 16 1011.1 - 0.0
23/12:30pm 26.5 26.0 19.1 64 4.8 E 20 26 11 14 1011.7 - 0.0
23/12:00pm 26.5 26.5 18.9 63 4.9 ENE 17 22 9 12 1011.7 1011.4 0.0
23/11:30am 25.8 25.6 17.7 61 5.1 NNE 15 24 8 13 1012.5 - 0.0
23/10:30am 24.6 25.8 19.0 71 3.6 NNE 11 19 6 10 1013.4 - 0.0
23/10:00am 23.3 24.4 18.0 72 3.3 N 9 17 5 9 1013.8 - 0.0
23/09:30am 22.8 24.2 17.9 74 3.1 N 7 13 4 7 1014.3 - 0.0
23/09:00am 22.3 24.6 18.5 79 2.4 N 4 11 2 6 1014.4 1014.0 1.4
23/08:30am 21.1 24.2 19.6 91 1.0 NW 2 7 1 4 1014.2 - 1.4
23/08:00am 20.1 21.3 19.8 98 0.2 NW 13 15 7 8 1014.3 - 1.4
23/07:30am 19.7 21.2 19.7 100 0.0 N 11 15 6 8 1014.3 - 1.4
23/07:00am 19.5 21.7 19.3 99 0.1 N 6 11 3 6 1014.0 - 1.4
23/06:30am 19.2 21.7 19.0 99 0.1 ENE 4 9 2 5 1013.8 - 1.4
23/06:00am 19.1 22.3 18.9 99 0.1 CALM 0 0 0 0 1013.6 1013.2 1.4
23/05:30am 19.1 19.8 18.9 99 0.1 ENE 13 20 7 11 1013.0 - 1.4
23/05:00am 19.2 20.0 19.0 99 0.1 NE 13 17 7 9 1013.6 - 1.0
23/04:30am 19.4 21.2 18.7 96 0.4 NNE 7 11 4 6 1013.6 - 0.4
23/04:00am 19.7 20.9 18.2 91 0.9 N 9 13 5 7 1014.0 - 0.0
23/03:00am 20.4 21.4 16.8 80 2.2 NNE 7 9 4 5 1014.3 1013.9 0.0
23/02:30am 20.5 21.0 16.5 78 2.4 NE 9 13 5 7 1014.3 - 0.0
23/02:00am 21.0 19.8 16.2 74 2.9 NE 17 20 9 11 1014.6 - 0.0
23/01:30am 20.7 21.6 16.5 77 2.5 N 7 9 4 5 1015.0 - 0.0
23/01:00am 20.8 20.7 17.0 79 2.3 NNE 13 15 7 8 1015.2 - 0.0
23/12:30am 21.0 21.8 17.4 80 2.2 N 9 13 5 7 1015.1 - 0.0
23/12:00am 20.9 20.7 17.7 82 2.0 NE 15 19 8 10 1014.7 1014.3 0.0
 
Date/Time
EDT
Temp
°C
App
Temp
°C
Dew
Point
Rel
Hum
%
Delta-T
°C
Wind Press
QNH
hPa
Press
MSL
hPa
Rain
since 9 am
mm
Dir
 
Spd
km/h
Gust
km/h
Spd
kts
Gust
kts
22/11:30pm 20.8 21.1 17.8 83 1.9 NE 13 19 7 10 1014.8 - 0.0
22/11:00pm 20.4 21.2 18.2 87 1.4 E 11 15 6 8 1014.8 - 0.0
22/10:30pm 20.8 22.5 18.4 86 1.5 ESE 7 9 4 5 1014.9 - 0.0
22/10:00pm 20.8 22.3 18.0 84 1.7 NNE 7 9 4 5 1014.6 - 0.0
22/09:30pm 21.3 22.5 18.3 83 1.9 NNE 9 11 5 6 1015.0 - 0.0
22/09:00pm 21.6 22.9 18.4 82 2.0 ENE 9 11 5 6 1014.7 1014.3 0.0
22/08:30pm 21.8 23.2 18.6 82 2.0 ENE 9 15 5 8 1014.5 - 0.0
22/08:00pm 22.0 22.6 18.6 81 2.1 E 13 20 7 11 1014.3 - 0.0
22/07:30pm 22.7 23.9 18.3 76 2.8 SE 9 11 5 6 1014.4 - 0.0
22/07:00pm 23.2 23.9 17.9 72 3.3 ENE 11 17 6 9 1014.2 - 0.0
22/06:30pm 23.3 22.8 17.7 71 3.5 NNE 17 22 9 12 1014.0 - 0.0
22/06:00pm 23.8 22.8 17.5 68 3.9 NE 19 22 10 12 1014.0 1013.6 0.0
22/05:30pm 24.7 23.6 17.4 64 4.6 ENE 19 28 10 15 1013.8 - 0.0
22/05:00pm 25.3 23.6 18.0 64 4.6 NE 24 30 13 16 1013.8 - 0.0
22/04:30pm 25.6 24.2 18.0 63 4.8 ENE 22 30 12 16 1013.6 - 0.0
22/04:00pm 26.0 24.3 18.2 62 5.0 E 24 30 13 16 1013.4 - 0.0
22/03:30pm 25.8 22.9 18.0 62 4.9 NE 30 39 16 21 1013.3 - 0.0
22/03:00pm 25.4 22.8 17.8 62 4.8 NE 28 39 15 21 1013.8 1013.4 0.0
22/02:30pm 26.2 25.5 18.3 61 5.0 E 19 24 10 13 1014.1 - 0.0
22/02:00pm 26.2 24.6 18.3 61 5.0 ENE 24 32 13 17 1014.2 - 0.0
22/01:30pm 27.2 26.5 19.5 62 5.0 E 22 30 12 16 1014.7 - 0.0
22/01:00pm 27.1 26.5 18.9 61 5.3 E 20 30 11 16 1015.2 - 0.0
22/12:30pm 26.6 26.7 19.2 64 4.8 E 17 24 9 13 1015.7 - 0.0
22/12:00pm 25.4 25.0 18.1 64 4.6 ESE 17 20 9 11 1016.0 1015.6 0.0
22/11:30am 25.3 24.4 18.2 64 4.5 ESE 20 28 11 15 1016.1 - 0.0
22/11:00am 25.9 28.1 19.3 67 4.3 ENE 6 17 3 9 1016.0 - 0.0
22/10:30am 24.7 25.6 18.4 68 4.0 ESE 11 15 6 8 1015.9 - 0.0
22/10:00am 24.0 25.1 18.0 69 3.8 NE 9 13 5 7 1016.1 - 0.0
22/09:30am 22.8 24.3 18.1 75 2.9 N 7 11 4 6 1016.2 - 0.0
22/09:00am 22.6 23.7 17.1 71 3.4 NE 7 9 4 5 1016.4 1016.0 0.0
22/08:30am 22.3 25.1 17.9 76 2.7 CALM 0 0 0 0 1016.3 - 0.0
22/08:00am 20.4 23.3 18.3 88 1.3 CALM 0 0 0 0 1016.0 - 0.0
22/07:30am 18.9 21.6 17.7 93 0.7 CALM 0 0 0 0 1015.8 - 0.0
22/07:00am 19.0 21.1 18.2 95 0.5 N 4 9 2 5 1015.6 - 0.0
22/06:30am 17.8 19.4 17.8 100 0.0 NW 6 9 3 5 1015.3 - 0.0
22/06:00am 17.3 18.5 17.3 100 0.0 W 7 9 4 5 1015.0 1014.6 0.0
22/05:30am 17.1 17.8 17.1 100 0.0 WSW 9 9 5 5 1014.6 - 0.0
22/05:00am 16.5 16.9 16.3 99 0.1 SW 9 11 5 6 1014.4 - 0.0
22/04:30am 16.9 17.2 16.9 100 0.0 SW 11 13 6 7 1014.4 - 0.0
22/04:00am 17.0 16.9 17.0 100 0.0 SSW 13 13 7 7 1014.6 - 0.0
22/03:30am 16.8 17.3 16.6 99 0.1 S 9 11 5 6 1014.5 - 0.0
22/03:00am 17.1 18.1 16.9 99 0.1 SSW 7 9 4 5 1014.7 1014.3 0.0
22/02:30am 17.1 19.4 16.8 98 0.2 CALM 0 6 0 3 1014.8 - 0.0
22/02:00am 17.5 19.9 16.9 96 0.4 CALM 0 0 0 0 1015.1 - 0.0
22/01:30am 17.9 20.3 17.1 95 0.5 CALM 0 0 0 0 1015.3 - 0.0
22/01:00am 17.8 19.8 17.0 95 0.5 W 2 7 1 4 1015.6 - 0.0
22/12:30am 17.9 19.2 17.1 95 0.5 W 6 7 3 4 1015.6 - 0.0
22/12:00am 18.3 20.7 17.0 92 0.8 CALM 0 2 0 1 1015.6 1015.2 0.0
 
Date/Time
EDT
Temp
°C
App
Temp
°C
Dew
Point
Rel
Hum
%
Delta-T
°C
Wind Press
QNH
hPa
Press
MSL
hPa
Rain
since 9 am
mm
Dir
 
Spd
km/h
Gust
km/h
Spd
kts
Gust
kts
21/11:30pm 18.1 19.1 16.8 92 0.8 SSW 7 9 4 5 1015.6 - 0.0
21/11:00pm 18.4 19.4 16.9 91 0.9 SSW 7 9 4 5 1015.4 - 0.0
21/10:30pm 19.2 20.3 17.2 88 1.2 SW 7 9 4 5 1015.7 - 0.0
21/10:00pm 20.2 21.5 17.2 83 1.8 ESE 6 9 3 5 1015.3 - 0.0
21/09:30pm 20.5 20.9 17.3 82 2.0 NE 11 13 6 7 1015.4 - 0.0
21/09:00pm 20.5 20.8 16.9 80 2.2 NE 11 15 6 8 1015.1 1014.7 0.0
21/08:30pm 21.2 21.8 16.8 76 2.7 NE 9 13 5 7 1014.8 - 0.0
21/08:00pm 22.0 22.5 16.5 71 3.4 NE 9 15 5 8 1014.5 - 0.0
21/07:30pm 23.2 22.1 16.3 65 4.2 ENE 17 22 9 12 1014.2 - 0.0
21/07:00pm 24.3 23.2 16.3 61 4.9 E 17 24 9 13 1014.1 - 0.0
21/06:30pm 25.0 23.8 16.2 58 5.4 E 17 22 9 12 1013.8 - 0.0
21/06:00pm 25.4 23.8 16.5 58 5.5 E 20 28 11 15 1013.6 1013.2 0.0
21/05:30pm 25.9 23.9 16.5 56 5.8 ENE 22 32 12 17 1013.6 - 0.0
21/05:00pm 26.4 23.9 17.2 57 5.8 ENE 26 32 14 17 1013.6 - 0.0
21/04:30pm 26.8 24.4 17.3 56 6.0 E 26 33 14 18 1013.8 - 0.0
21/04:00pm 26.7 24.7 17.5 57 5.8 E 24 33 13 18 1014.0 - 0.0
21/03:30pm 26.4 24.9 17.7 58 5.5 E 22 30 12 16 1014.3 - 0.0
21/03:00pm 26.2 24.0 17.0 57 5.7 ENE 24 33 13 18 1014.6 1014.2 0.0
21/02:30pm 26.3 24.8 17.6 58 5.5 E 22 30 12 16 1015.0 - 0.0
21/02:00pm 25.7 24.0 16.3 56 5.8 ENE 20 35 11 19 1015.2 - 0.0
21/01:30pm 26.3 24.4 16.8 56 5.9 E 22 32 12 17 1015.6 - 0.0
21/01:00pm 25.9 24.6 17.3 59 5.4 ENE 20 28 11 15 1016.3 - 0.0
21/12:30pm 25.3 24.1 16.2 57 5.6 E 17 20 9 11 1016.9 - 0.0
21/12:00pm 24.9 23.6 15.8 57 5.5 ESE 17 22 9 12 1017.1 1016.8 0.0
21/11:30am 25.3 25.9 16.7 59 5.3 E 9 13 5 7 1017.4 - 0.0
21/11:00am 23.8 23.2 13.6 52 6.0 ENE 9 19 5 10 1017.5 - 0.0
21/10:30am 23.1 21.8 13.8 55 5.4 NNE 13 19 7 10 1017.4 - 0.0
21/10:00am 22.2 22.0 13.5 57 5.0 N 7 11 4 6 1017.6 - 0.0
21/09:30am 21.7 20.8 13.6 60 4.7 N 11 19 6 10 1017.8 - 0.0
21/09:00am 20.9 21.7 13.8 64 4.1 N 2 7 1 4 1018.0 1017.7 0.0
21/08:30am 20.2 20.1 13.4 65 3.9 N 6 11 3 6 1018.0 - 0.0
21/08:00am 19.3 19.0 13.2 68 3.5 NNW 7 9 4 5 1018.0 - 0.0
21/07:30am 18.2 19.4 13.9 76 2.5 CALM 0 0 0 0 1017.7 - 0.0
21/07:00am 16.4 17.6 13.7 84 1.5 CALM 0 0 0 0 1017.7 - 0.0
21/06:30am 14.9 14.7 13.6 92 0.7 NW 7 9 4 5 1017.6 - 0.0
21/06:00am 14.0 15.0 13.2 95 0.4 CALM 0 0 0 0 1017.4 1017.1 0.0
21/05:30am 13.8 14.7 12.9 94 0.5 CALM 0 0 0 0 1017.3 - 0.0
21/05:00am 14.0 14.8 12.6 91 0.8 CALM 0 0 0 0 1017.2 - 0.0
21/04:30am 15.0 14.8 13.5 91 0.8 W 7 9 4 5 1017.2 - 0.0
21/04:00am 15.0 15.7 13.4 90 0.9 W 2 7 1 4 1017.2 - 0.0
21/03:30am 15.0 16.2 13.9 93 0.6 CALM 0 0 0 0 1017.2 - 0.0
21/03:00am 15.3 16.5 13.7 90 0.9 CALM 0 0 0 0 1017.3 1017.0 0.0
21/02:30am 15.6 16.0 13.6 88 1.1 W 4 7 2 4 1017.6 - 0.0
21/02:00am 15.3 15.1 13.7 90 0.9 W 7 9 4 5 1017.8 - 0.0
21/01:30am 15.2 16.2 13.2 88 1.1 CALM 0 0 0 0 1018.1 - 0.0
21/01:00am 16.4 16.6 14.1 86 1.3 W 6 9 3 5 1018.5 - 0.0
21/12:30am 16.5 17.9 14.3 87 1.3 CALM 0 0 0 0 1018.7 - 0.0
21/12:00am 16.1 17.3 13.9 87 1.2 CALM 0 0 0 0 1019.1 1018.8 0.0
 
Date/Time
EDT
Temp
°C
App
Temp
°C
Dew
Point
Rel
Hum
%
Delta-T
°C
Wind Press
QNH
hPa
Press
MSL
hPa
Rain
since 9 am
mm
Dir
 
Spd
km/h
Gust
km/h
Spd
kts
Gust
kts
20/11:30pm 16.0 15.9 14.0 88 1.1 S 7 9 4 5 1019.1 - 0.0
20/11:00pm 15.9 15.4 13.9 88 1.1 SSW 9 11 5 6 1019.2 - 0.0
20/10:30pm 15.7 15.1 13.4 86 1.3 SSW 9 13 5 7 1019.0 - 0.0
20/10:00pm 16.6 16.1 13.7 83 1.6 SSE 9 11 5 6 1019.0 - 0.0
20/09:30pm 16.8 15.8 13.3 80 2.0 S 11 13 6 7 1018.8 - 0.0
20/09:00pm 17.5 16.8 13.2 76 2.4 SSE 9 13 5 7 1018.4 1018.1 0.0
20/08:30pm 17.8 17.1 13.3 75 2.5 SE 9 11 5 6 1018.1 - 0.0
20/08:00pm 18.2 16.3 12.9 71 3.0 ESE 15 20 8 11 1017.7 - 0.0
20/07:30pm 18.8 16.1 12.8 68 3.4 E 19 24 10 13 1017.4 - 0.0
20/07:00pm 19.7 16.9 12.7 64 4.0 E 19 26 10 14 1016.8 - 0.0
20/06:30pm 20.0 16.7 12.7 63 4.1 E 22 30 12 16 1016.3 - 0.0
20/06:00pm 20.5 17.5 12.7 61 4.4 E 20 30 11 16 1015.9 1015.5 0.0
20/05:30pm 21.0 17.8 13.2 61 4.5 ENE 22 28 12 15 1015.6 - 0.0
20/05:00pm 21.6 18.5 13.5 60 4.7 E 22 32 12 17 1015.5 - 0.0
20/04:30pm 21.9 18.7 13.0 57 5.1 E 22 28 12 15 1015.6 - 0.0
20/04:00pm 21.4 18.5 12.8 58 4.9 ENE 20 30 11 16 1015.8 - 0.0
20/03:30pm 22.0 19.1 12.8 56 5.3 ENE 20 28 11 15 1016.1 - 0.0
20/03:00pm 21.8 18.5 12.9 57 5.1 ENE 22 30 12 16 1016.3 1015.9 0.0
20/02:30pm 21.7 18.2 12.3 55 5.3 NE 22 30 12 16 1016.5 - 0.0
20/02:00pm 22.6 19.5 13.4 56 5.3 ENE 22 33 12 18 1016.6 - 0.0

Other Formats:

Comma delimited format used in spreadsheet applications
http://www.bom.gov.au/fwo/IDN60801/IDN60801.94750.axf

JavaScript Object Notation format (JSON) in row-major order
http://www.bom.gov.au/fwo/IDN60801/IDN60801.94750.json